Pagina principale
METAR-TAF:

METAR-TAF

Aeroporti :

Aeroporto di Lubiana-Brnik

Lubiana, Slovenia

latitudine: 46-13N, longitudine: 014-29E, altezza: 385 m

Osservazione

Il bollettino è stato emesso 10 minuti fa, alle 12:00 UTC
Vento 3 kt da est/nord-est, variando fra nord e est
Temperature 2°C
Umidità 44%
Pressione 1036 hPa
Visibilità 10 km o più
Poco nuvoloso ad un'altezza di 4500 ft

METAR: LJLJ 091200Z 06003KT 010V100 9999 FEW045 02/M09 Q1036 NOSIG

Ora: 13:10 (12:10 UTC)

Previsione

Il bollettino è stato emesso 1 ora e 10 minuti fa, alle 11:00 UTC
Previsione valida dal 09 alle 12 UTC al 10 alle 12 UTC
Vento 4 kt da ovest
Visibilità 10 km o più
Poco nuvoloso ad un'altezza di 4500 ft

TAF: LJLJ 091100Z 0912/1012 26004KT 9999 FEW045

Osservazioni e previsioni meteorologiche di più di 4000 aeroporti (messaggi METAR e TAF).

Le stazioni disponibili sono rappresentate dai dischi gialli e rossi sulla carta.

Puntare il mouse per vedere il nome della stazione.

Clicca sopra per visualizzare le osservazioni e previsioni meteorologiche.

Per cambiare la mappa : fare clic sui pulsanti verdi con una croce nera per ingrandire, il pulsante verde con un trattino per diminuire, o sulla freccia verde per le mappe adiacenti.


METAR-TAF: